Terminal Aerodrome Forecast
Issued by NWS Austin/San Antonio, TX

Current Version | Previous Version | Text Only | Print | Product List | Glossary On
Versions: 1 2 3 4 5 6 7 8 9 10 11 12 13 14 15 16 17 18 19 20 21
000
FTUS44 KEWX 192300
TAFDRT
TAF
KDRT 192320Z 2000/2024 13015KT P6SM SCT060
     FM201000 12010KT P6SM BKN013
     FM201200 12010KT 3SM BR BKN008 OVC012
     FM201600 13013KT P6SM BKN015
     FM201900 13014KT P6SM BKN025
     FM202100 13015KT P6SM SCT025=

USA.gov is the U.S. government's official web portal to all federal, state and local government web resources and services.